Time;durP1;ratioP1;P1;durP2;ratioP2;P2;SDS_P1;SDS_P2;PMS_P1;PMS_P2;Temp;Humidity;BMP_temperature;BMP_pressure;BME280_temperature;BME280_humidity;BME280_pressure;Samples;Min_cycle;Max_cycle;Signal;HPM_P1;HPM_P2
2022/11/18 00:01:04;;;;;;;4.53;2.55;;;;;;;-3.58;100.00;98666.00;5152722;27;20528;-47
2022/11/18 00:03:30;;;;;;;3.45;2.28;;;;;;;-3.43;100.00;98665.84;5152205;27;20057;-47
2022/11/18 00:05:57;;;;;;;3.95;2.53;;;;;;;-3.71;100.00;98650.59;5152455;27;20133;-48
2022/11/18 00:08:25;;;;;;;5.10;2.58;;;;;;;-3.47;100.00;98654.06;5152210;27;20133;-50
2022/11/18 00:10:52;;;;;;;4.50;2.60;;;;;;;-3.37;100.00;98643.22;5152206;27;20497;-48
2022/11/18 00:16:03;;;;;;;;;;;;;;;-3.36;100.00;98628.78;5152810;27;20134;-47
2022/11/18 00:18:30;;;;;;;2.88;2.30;;;;;;;-3.39;100.00;98617.81;5152285;27;19923;-46
2022/11/18 00:21:01;;;;;;;3.60;2.35;;;;;;;-3.45;100.00;98598.31;5152068;27;20138;-46
2022/11/18 00:23:28;;;;;;;3.58;2.58;;;;;;;-3.66;100.00;98576.34;5152186;27;20050;-46
2022/11/18 00:25:54;;;;;;;5.38;2.55;;;;;;;-3.71;100.00;98567.53;5152069;27;20141;-47
2022/11/18 00:28:20;;;;;;;3.10;2.45;;;;;;;-3.52;100.00;98565.72;5151989;27;20047;-49
2022/11/18 00:30:46;;;;;;;2.85;2.47;;;;;;;-3.49;100.00;98565.16;5151956;27;20429;-47
2022/11/18 00:33:13;;;;;;;4.40;2.83;;;;;;;-3.59;100.00;98538.47;5152064;27;20057;-49
2022/11/18 00:35:39;;;;;;;6.32;2.65;;;;;;;-3.32;100.00;98540.53;5151991;27;20130;-46
2022/11/18 00:38:05;;;;;;;4.55;2.40;;;;;;;-3.56;100.00;98509.22;5151889;27;20108;-48
2022/11/18 00:40:32;;;;;;;3.97;2.33;;;;;;;-3.61;100.00;98492.41;5152417;27;20046;-47
2022/11/18 00:42:58;;;;;;;3.15;2.50;;;;;;;-3.45;100.00;98476.94;5151825;27;20047;-47
2022/11/18 00:45:24;;;;;;;4.55;2.90;;;;;;;-3.52;100.00;98447.81;5152378;27;20092;-47
2022/11/18 00:47:51;;;;;;;5.18;3.22;;;;;;;-3.81;100.00;98416.59;5151731;27;20078;-46
2022/11/18 00:50:17;;;;;;;5.82;3.30;;;;;;;-3.78;100.00;98417.91;5151847;27;20086;-49
2022/11/18 00:52:43;;;;;;;3.90;2.92;;;;;;;-3.75;100.00;98390.53;5151747;27;20047;-46
2022/11/18 00:55:10;;;;;;;7.65;2.83;;;;;;;-4.02;100.00;98380.47;5151622;27;20099;-46
2022/11/18 00:57:37;;;;;;;6.35;3.35;;;;;;;-4.08;100.00;98395.78;5151618;27;20046;-47
2022/11/18 01:00:04;;;;;;;6.07;3.40;;;;;;;-3.98;100.00;98402.91;5151400;27;20046;-46
2022/11/18 01:02:30;;;;;;;4.93;3.10;;;;;;;-4.32;100.00;98366.41;5151533;27;20106;-46
2022/11/18 01:04:56;;;;;;;5.47;3.63;;;;;;;-4.05;100.00;98394.44;5151502;27;20426;-46
2022/11/18 01:07:23;;;;;;;5.30;3.42;;;;;;;-3.97;100.00;98390.31;5151512;27;20069;-46
2022/11/18 01:09:49;;;;;;;6.70;3.60;;;;;;;-4.17;100.00;98364.59;5151245;27;20055;-48
2022/11/18 01:15:00;;;;;;;6.88;3.65;;;;;;;-4.21;100.00;98385.00;5151385;27;20050;-46
2022/11/18 01:17:29;;;;;;;6.63;3.92;;;;;;;-4.21;100.00;98385.00;5151266;27;20051;-47
2022/11/18 01:19:55;;;;;;;7.85;4.07;;;;;;;-4.19;100.00;98391.66;5151297;27;20061;-47
2022/11/18 01:22:22;;;;;;;8.02;4.22;;;;;;;-4.07;100.00;98386.69;5151129;27;20529;-48
2022/11/18 01:24:48;;;;;;;8.57;5.00;;;;;;;-4.11;100.00;98356.22;5151147;27;20343;-47
2022/11/18 01:27:14;;;;;;;9.65;3.95;;;;;;;-4.51;100.00;98354.84;5151266;27;20395;-47
2022/11/18 01:29:41;;;;;;;11.07;5.18;;;;;;;-4.13;100.00;98417.28;5151145;27;20095;-47
2022/11/18 01:32:08;;;;;;;8.43;4.45;;;;;;;-4.26;100.00;98412.63;5151067;27;20043;-46
2022/11/18 01:34:34;;;;;;;7.60;4.63;;;;;;;-4.32;100.00;98421.81;5150983;27;20096;-47
2022/11/18 01:37:00;;;;;;;9.32;4.47;;;;;;;-4.32;100.00;98441.31;5151076;27;20046;-46
2022/11/18 01:39:27;;;;;;;10.70;4.95;;;;;;;-4.07;100.00;98469.66;5151418;27;20134;-46
2022/11/18 01:41:53;;;;;;;7.63;5.00;;;;;;;-4.30;100.00;98473.97;5150924;27;20150;-45
2022/11/18 01:45:08;;;;;;;8.70;5.50;;;;;;;-4.21;100.00;98492.84;5151094;27;20055;-47
2022/11/18 01:47:40;;;;;;;9.20;5.70;;;;;;;-4.27;100.00;98491.31;5103627;27;20055;-46
2022/11/18 01:50:07;;;;;;;7.70;4.72;;;;;;;-4.48;100.00;98496.06;5150808;27;20099;-46
2022/11/18 01:52:35;;;;;;;14.15;5.85;;;;;;;-4.23;100.00;98516.44;5151161;27;20054;-47
2022/11/18 01:55:10;;;;;;;10.25;5.00;;;;;;;-4.21;100.00;98524.97;5150709;27;20141;-47
2022/11/18 01:57:37;;;;;;;10.18;5.38;;;;;;;-4.10;100.00;98526.47;5150922;27;20099;-47
2022/11/18 02:00:05;;;;;;;10.90;5.68;;;;;;;-4.14;100.00;98504.00;5150630;27;20046;-46
2022/11/18 02:02:35;;;;;;;9.23;4.97;;;;;;;-4.22;100.00;98487.81;5150665;27;20047;-48
2022/11/18 02:05:04;;;;;;;9.65;5.47;;;;;;;-4.26;100.00;98477.66;5150562;27;20061;-46
2022/11/18 02:07:31;;;;;;;10.40;5.70;;;;;;;-3.97;100.00;98476.00;5150776;27;20057;-47
2022/11/18 02:10:01;;;;;;;7.82;4.95;;;;;;;-4.14;100.00;98425.59;5150884;27;20135;-46
2022/11/18 02:12:27;;;;;;;7.40;4.55;;;;;;;-4.45;100.00;98420.59;5152043;27;20094;-47
2022/11/18 02:14:54;;;;;;;9.68;5.65;;;;;;;-4.23;100.00;98435.34;5154496;27;20054;-47
2022/11/18 02:17:29;;;;;;;8.00;5.40;;;;;;;-4.42;100.00;98408.53;5154059;27;20043;-49
2022/11/18 02:20:27;;;;;;;10.50;5.78;;;;;;;-4.72;100.00;98410.47;5154342;27;20053;-47
2022/11/18 02:23:27;;;;;;;11.20;5.63;;;;;;;-4.38;100.00;98426.41;5147963;27;20046;-47
2022/11/18 02:26:28;;;;;;;12.18;5.40;;;;;;;-4.52;100.00;98417.47;5140918;27;20554;-47
2022/11/18 02:29:02;;;;;;;10.00;5.53;;;;;;;-4.79;100.00;98418.03;5095379;27;20044;-46
2022/11/18 02:31:31;;;;;;;;;;;;;;;-4.95;100.00;98432.59;5154485;27;20170;-46
2022/11/18 02:34:03;;;;;;;9.45;5.40;;;;;;;-5.09;100.00;98451.16;5153879;27;19923;-47
2022/11/18 02:36:39;;;;;;;10.00;5.40;;;;;;;-4.68;100.00;98497.06;5153792;27;20051;-46
2022/11/18 02:39:10;;;;;;;8.45;5.35;;;;;;;-5.08;100.00;98487.50;5153852;27;20425;-47
2022/11/18 02:41:39;;;;;;;10.05;5.38;;;;;;;-4.89;100.00;98506.34;5154121;27;20046;-46
2022/11/18 02:44:11;;;;;;;13.10;6.05;;;;;;;-5.02;100.00;98510.44;5153758;27;20417;-48
2022/11/18 02:46:39;;;;;;;9.93;5.60;;;;;;;-4.93;100.00;98524.81;5153865;27;20057;-46
2022/11/18 02:49:10;;;;;;;10.20;4.82;;;;;;;-5.20;100.00;98517.25;5153564;27;20095;-47
2022/11/18 02:51:38;;;;;;;10.48;5.78;;;;;;;-5.03;100.00;98535.56;5153641;27;20133;-47
2022/11/18 02:54:08;;;;;;;13.18;7.10;;;;;;;-5.09;100.00;98542.84;5153418;27;20065;-46
2022/11/18 02:56:35;;;;;;;11.13;5.70;;;;;;;-5.31;100.00;98535.22;5153401;27;20053;-47
2022/11/18 02:59:03;;;;;;;12.93;6.90;;;;;;;-5.16;100.00;98546.88;5153578;27;20077;-49
2022/11/18 03:01:33;;;;;;;11.85;5.95;;;;;;;-5.24;100.00;98545.59;5153437;27;20046;-48
2022/11/18 03:04:00;;;;;;;14.95;6.47;;;;;;;-5.09;100.00;98542.84;5153414;27;20051;-47
2022/11/18 03:06:31;;;;;;;9.70;5.95;;;;;;;-5.27;100.00;98541.59;5153290;27;20577;-46
2022/11/18 03:09:08;;;;;;;11.52;6.40;;;;;;;-5.41;100.00;98545.97;5153519;27;20095;-46
2022/11/18 03:11:43;;;;;;;12.57;6.60;;;;;;;-5.37;100.00;98563.03;5153286;27;20170;-46
2022/11/18 03:14:21;;;;;;;11.75;6.45;;;;;;;-5.45;100.00;98567.09;5153435;27;20082;-47
2022/11/18 03:16:57;;;;;;;13.52;6.22;;;;;;;-5.36;100.00;98578.00;5153290;27;20068;-46
2022/11/18 03:19:42;;;;;;;11.25;6.00;;;;;;;-5.33;100.00;98582.81;5153043;27;20104;-46
2022/11/18 03:22:14;;;;;;;11.93;6.72;;;;;;;-5.27;100.00;98592.38;5150581;27;20054;-47
2022/11/18 03:24:45;;;;;;;13.05;6.57;;;;;;;-5.32;100.00;98579.03;5151706;27;20067;-47
2022/11/18 03:27:16;;;;;;;12.35;6.88;;;;;;;-5.31;100.00;98577.97;5152965;27;20088;-48
2022/11/18 03:29:47;;;;;;;10.20;6.15;;;;;;;-5.33;100.00;98572.13;5152893;27;20054;-47
2022/11/18 03:32:18;;;;;;;13.77;6.28;;;;;;;-5.19;100.00;98574.19;5153260;27;20142;-47
2022/11/18 03:34:47;;;;;;;13.27;7.15;;;;;;;-5.02;100.00;98566.59;5152893;27;20558;-47
2022/11/18 03:37:16;;;;;;;11.93;6.80;;;;;;;-5.06;100.00;98547.63;5152794;27;20056;-46
2022/11/18 03:39:47;;;;;;;11.75;6.40;;;;;;;-5.19;100.00;98523.41;5153091;27;20053;-46
2022/11/18 03:42:20;;;;;;;13.50;6.78;;;;;;;-5.15;100.00;98527.13;5152649;27;20141;-48
2022/11/18 03:44:52;;;;;;;10.97;5.80;;;;;;;-5.12;100.00;98513.19;5152804;27;20090;-49
2022/11/18 03:47:25;;;;;;;11.13;6.53;;;;;;;-5.23;100.00;98502.56;5152599;27;20789;-48
2022/11/18 03:49:55;;;;;;;11.83;7.23;;;;;;;-5.06;100.00;98522.78;5152907;27;20536;-47
2022/11/18 03:52:27;;;;;;;15.30;6.88;;;;;;;-4.87;100.00;98507.66;5152541;27;20565;-48
2022/11/18 03:54:57;;;;;;;10.35;6.55;;;;;;;-4.87;100.00;98482.78;5152418;27;20102;-51
2022/11/18 03:57:28;;;;;;;13.57;7.55;;;;;;;-5.05;100.00;98461.00;5152599;27;20142;-46
2022/11/18 04:00:02;;;;;;;13.20;6.72;;;;;;;-5.12;100.00;98470.44;5152321;27;20133;-48
2022/11/18 04:02:29;;;;;;;;;;;;;;;-5.18;100.00;98469.66;5153204;27;20086;-50
2022/11/18 04:04:57;;;;;;;14.40;7.00;;;;;;;-5.05;100.00;98493.09;5152445;27;19934;-47
2022/11/18 04:07:30;;;;;;;14.70;7.93;;;;;;;-5.11;100.00;98480.03;5152546;27;20134;-47
2022/11/18 04:10:02;;;;;;;13.18;6.93;;;;;;;-5.21;100.00;98478.25;5152206;27;20060;-47
2022/11/18 04:12:33;;;;;;;13.95;6.95;;;;;;;-5.12;100.00;98492.59;5152310;27;20146;-46
2022/11/18 04:14:59;;;;;;;17.27;8.90;;;;;;;-5.17;100.00;98492.63;5152203;27;20058;-48
2022/11/18 04:17:28;;;;;;;11.75;6.95;;;;;;;-5.05;100.00;98505.66;5152094;27;20054;-49
2022/11/18 04:19:55;;;;;;;15.27;8.23;;;;;;;-4.69;100.00;98497.34;5152159;27;20054;-47
2022/11/18 04:22:21;;;;;;;20.13;7.82;;;;;;;-4.83;100.00;98460.56;5151826;27;20050;-47
2022/11/18 04:24:48;;;;;;;12.82;7.82;;;;;;;-4.79;100.00;98439.41;5151863;27;20046;-50
2022/11/18 04:27:14;;;;;;;12.65;7.07;;;;;;;-5.11;100.00;98430.06;5151889;27;20042;-47
2022/11/18 04:29:41;;;;;;;12.77;7.85;;;;;;;-4.75;100.00;98448.47;5152105;27;20090;-47
2022/11/18 04:32:07;;;;;;;15.13;7.55;;;;;;;-4.69;100.00;98425.94;5151836;27;20615;-47
2022/11/18 04:34:33;;;;;;;16.35;7.22;;;;;;;-4.70;100.00;98408.28;5151743;27;20141;-47
2022/11/18 04:37:01;;;;;;;14.73;7.20;;;;;;;-5.04;100.00;98384.28;5151623;27;20420;-47
2022/11/18 04:39:27;;;;;;;14.73;7.72;;;;;;;-4.83;100.00;98416.97;5151969;27;20085;-47
2022/11/18 04:41:56;;;;;;;15.10;7.97;;;;;;;-5.09;100.00;98403.06;5151770;27;20053;-47
2022/11/18 04:44:22;;;;;;;19.65;9.05;;;;;;;-4.78;100.00;98441.78;5151587;27;20402;-47
2022/11/18 04:46:49;;;;;;;14.18;7.68;;;;;;;-4.90;100.00;98441.34;5151661;27;20046;-47
2022/11/18 04:49:15;;;;;;;17.23;7.63;;;;;;;-4.54;100.00;98465.09;5151506;27;20110;-50
2022/11/18 04:51:42;;;;;;;20.08;9.20;;;;;;;-4.72;100.00;98434.53;5151474;27;20047;-50
2022/11/18 04:54:10;;;;;;;24.00;8.98;;;;;;;-4.90;100.00;98438.69;5151619;27;20423;-50
2022/11/18 04:56:37;;;;;;;11.95;7.45;;;;;;;-5.02;100.00;98457.00;5151704;27;20489;-49
2022/11/18 04:59:04;;;;;;;15.75;9.02;;;;;;;-4.78;100.00;98489.13;5151571;27;20051;-47
2022/11/18 05:01:31;;;;;;;16.48;8.80;;;;;;;-4.87;100.00;98506.84;5151684;27;20122;-47
2022/11/18 05:03:59;;;;;;;18.80;9.65;;;;;;;-4.96;100.00;98512.00;5151237;27;20043;-49
2022/11/18 05:06:25;;;;;;;17.42;9.18;;;;;;;-5.06;100.00;98533.47;5151508;27;20054;-47
2022/11/18 05:08:52;;;;;;;14.60;8.00;;;;;;;-5.03;100.00;98546.25;5151262;27;20046;-47
2022/11/18 05:14:03;;;;;;;17.48;9.35;;;;;;;-5.10;100.00;98583.97;5151292;27;20075;-48
2022/11/18 05:16:30;;;;;;;17.60;9.82;;;;;;;-4.79;100.00;98608.66;5151359;27;20175;-48
2022/11/18 05:18:56;;;;;;;20.10;9.57;;;;;;;-4.93;100.00;98607.69;5150908;27;20141;-49
2022/11/18 05:21:22;;;;;;;21.60;10.00;;;;;;;-4.89;100.00;98606.06;5151101;27;20413;-46
2022/11/18 05:23:49;;;;;;;19.17;10.13;;;;;;;-4.59;100.00;98620.31;5151035;27;20047;-48
2022/11/18 05:26:15;;;;;;;18.52;9.88;;;;;;;-4.77;100.00;98614.53;5151431;27;20085;-47
2022/11/18 05:28:42;;;;;;;19.50;9.40;;;;;;;-4.45;100.00;98623.94;5151239;27;20043;-54
2022/11/18 05:31:09;;;;;;;19.60;9.20;;;;;;;-4.61;100.00;98603.72;5150935;27;20046;-51
2022/11/18 05:33:36;;;;;;;19.83;8.85;;;;;;;-4.48;100.00;98597.75;5151118;27;20537;-53
2022/11/18 05:36:03;;;;;;;16.70;9.27;;;;;;;-4.43;100.00;98565.59;5150916;27;20527;-51
2022/11/18 05:38:32;;;;;;;22.60;10.45;;;;;;;-4.45;100.00;98537.53;5150860;27;20050;-51
2022/11/18 05:40:59;;;;;;;18.48;9.55;;;;;;;-4.50;100.00;98517.78;5150782;27;20145;-53
2022/11/18 05:43:24;;;;;;;20.88;10.70;;;;;;;-4.22;100.00;98514.56;5150903;27;20494;-55
2022/11/18 05:45:52;;;;;;;19.92;10.32;;;;;;;-4.30;100.00;98473.97;5150473;27;20086;-53
2022/11/18 05:48:19;;;;;;;19.15;10.48;;;;;;;-4.50;100.00;98474.16;5153238;27;20057;-52
2022/11/18 05:50:46;;;;;;;16.23;9.40;;;;;;;-4.67;100.00;98474.56;5154903;27;20485;-54
2022/11/18 05:53:13;;;;;;;18.38;9.93;;;;;;;-4.11;100.00;98521.41;5154528;27;20592;-52
2022/11/18 05:55:46;;;;;;;19.48;10.85;;;;;;;-4.46;100.00;98493.09;5154560;27;20091;-52
2022/11/18 05:58:12;;;;;;;18.35;9.45;;;;;;;-4.17;100.00;98512.59;5154425;27;20057;-53
2022/11/18 06:00:39;;;;;;;20.42;9.90;;;;;;;-4.33;100.00;98487.91;5154467;27;20050;-56
2022/11/18 06:03:12;;;;;;;18.35;9.32;;;;;;;-4.00;100.00;98487.25;5154261;27;20046;-54
2022/11/18 06:05:38;;;;;;;16.38;8.57;;;;;;;-4.02;100.00;98463.47;5154222;27;20053;-53
2022/11/18 06:08:05;;;;;;;18.85;8.90;;;;;;;-4.13;100.00;98451.28;5154193;27;20131;-53
2022/11/18 06:10:36;;;;;;;15.98;7.90;;;;;;;-4.20;100.00;98448.16;5154062;27;20046;-51
2022/11/18 06:13:08;;;;;;;19.48;9.73;;;;;;;-4.13;100.00;98470.00;5154072;27;20193;-52
2022/11/18 06:15:39;;;;;;;17.60;9.00;;;;;;;-3.83;100.00;98495.66;5154077;27;20134;-54
2022/11/18 06:18:10;;;;;;;17.02;9.48;;;;;;;-4.06;100.00;98454.44;5154241;27;20072;-53
2022/11/18 06:20:39;;;;;;;14.85;8.43;;;;;;;-4.22;100.00;98444.97;5153961;27;20133;-51
2022/11/18 06:23:06;;;;;;;22.42;9.02;;;;;;;-4.04;100.00;98442.31;5153805;27;20050;-54
2022/11/18 06:25:32;;;;;;;18.83;9.23;;;;;;;-3.65;100.00;98427.91;5153647;27;20046;-53
2022/11/18 06:28:01;;;;;;;18.70;9.25;;;;;;;-3.76;100.00;98412.28;5153936;27;20117;-55
2022/11/18 06:30:27;;;;;;;17.17;9.07;;;;;;;-3.93;100.00;98381.44;5153820;27;20513;-53
2022/11/18 06:32:54;;;;;;;18.45;8.52;;;;;;;-4.59;100.00;98398.28;5153646;27;20083;-53
2022/11/18 06:35:21;;;;;;;15.27;8.65;;;;;;;-4.23;100.00;98480.84;5153752;27;20050;-52
2022/11/18 06:37:47;;;;;;;19.65;9.73;;;;;;;-4.07;100.00;98499.13;5153631;27;20055;-53
2022/11/18 06:40:13;;;;;;;17.02;9.20;;;;;;;-3.98;100.00;98498.50;5153810;27;20054;-51
2022/11/18 06:46:54;;;;;;;18.70;9.13;;;;;;;-3.88;100.00;98421.50;5089555;28;20056;-53
2022/11/18 06:48:25;;;;;;;19.83;10.20;;;;;;;-3.94;100.00;98436.03;5089413;28;20051;-54
2022/11/18 06:50:52;;;;;;;19.65;9.93;;;;;;;-3.98;100.00;98440.38;5125922;27;20074;-53
2022/11/18 06:53:18;;;;;;;16.38;8.90;;;;;;;-4.15;100.00;98459.59;5153625;27;20133;-54
2022/11/18 06:55:44;;;;;;;17.13;9.00;;;;;;;-3.83;100.00;98475.03;5153424;27;20046;-52
2022/11/18 06:58:10;;;;;;;17.48;9.73;;;;;;;-3.85;100.00;98463.00;5153158;27;20046;-55
2022/11/18 07:00:37;;;;;;;16.88;9.15;;;;;;;-4.01;100.00;98462.38;5153777;27;20047;-52
2022/11/18 07:03:03;;;;;;;19.77;9.77;;;;;;;-3.89;100.00;98486.88;5153430;27;20047;-54
2022/11/18 07:05:29;;;;;;;17.67;9.55;;;;;;;-3.67;100.00;98498.91;5153228;27;20058;-55
2022/11/18 07:07:56;;;;;;;21.08;11.13;;;;;;;-3.63;100.00;98492.72;5153151;27;20050;-53
2022/11/18 07:10:22;;;;;;;22.67;11.68;;;;;;;-3.69;100.00;98461.72;5153206;27;20483;-52
2022/11/18 07:12:49;;;;;;;18.63;9.57;;;;;;;-3.33;100.00;98464.69;5152891;27;20047;-53
2022/11/18 07:15:15;;;;;;;16.02;9.77;;;;;;;-3.25;100.00;98425.69;5153066;27;20137;-54
2022/11/18 07:17:41;;;;;;;18.42;10.02;;;;;;;-3.48;100.00;98386.41;5152922;27;20102;-53
2022/11/18 07:20:09;;;;;;;23.50;10.90;;;;;;;-3.91;100.00;98371.22;5153216;27;20050;-54
2022/11/18 07:22:35;;;;;;;21.23;9.93;;;;;;;-3.78;100.00;98421.38;5152955;27;20065;-57
2022/11/18 07:25:02;;;;;;;19.27;10.07;;;;;;;-3.65;100.00;98408.34;5153012;27;20054;-57
2022/11/18 07:27:28;;;;;;;20.13;10.27;;;;;;;-3.56;100.00;98428.06;5153013;27;20133;-55
2022/11/18 07:29:55;;;;;;;25.17;10.75;;;;;;;-3.65;100.00;98425.22;5152792;27;20141;-55
2022/11/18 07:32:21;;;;;;;17.73;9.70;;;;;;;-3.65;100.00;98435.13;5152875;27;20420;-56
2022/11/18 07:34:47;;;;;;;16.17;8.98;;;;;;;-3.83;100.00;98434.84;5152610;27;20535;-53
2022/11/18 07:37:13;;;;;;;24.50;10.18;;;;;;;-3.78;100.00;98456.19;5152624;27;20149;-46
2022/11/18 07:39:40;;;;;;;21.00;11.20;;;;;;;-3.80;100.00;98466.41;5152442;27;20046;-49
2022/11/18 07:42:08;;;;;;;21.67;10.63;;;;;;;-3.79;100.00;98489.44;5152233;27;20046;-48
2022/11/18 07:44:35;;;;;;;18.83;9.98;;;;;;;-3.67;100.00;98501.59;5152518;27;20047;-48
2022/11/18 07:47:01;;;;;;;20.83;9.93;;;;;;;-3.60;100.00;98507.41;5152842;27;20085;-46
2022/11/18 07:49:27;;;;;;;24.83;10.80;;;;;;;-3.40;100.00;98495.59;5152534;27;20054;-47
2022/11/18 07:51:53;;;;;;;23.45;10.38;;;;;;;-3.57;100.00;98434.47;5152475;27;20138;-47
2022/11/18 07:54:20;;;;;;;27.27;10.95;;;;;;;-3.45;100.00;98415.28;5152284;27;20046;-46
2022/11/18 07:56:46;;;;;;;22.92;11.18;;;;;;;-3.32;100.00;98407.31;5152499;27;20052;-47
2022/11/18 07:59:13;;;;;;;25.70;11.18;;;;;;;-3.42;100.00;98383.34;5152471;27;20049;-46
2022/11/18 08:01:39;;;;;;;20.77;10.50;;;;;;;-3.33;100.00;98370.09;5152380;27;20073;-46
2022/11/18 08:04:07;;;;;;;19.52;10.60;;;;;;;-3.52;100.00;98351.34;5152116;27;20046;-47
2022/11/18 08:06:34;;;;;;;20.77;10.25;;;;;;;-3.12;100.00;98383.94;5152238;27;20429;-47
2022/11/18 08:09:01;;;;;;;17.90;10.43;;;;;;;-3.32;100.00;98305.47;5152524;27;20063;-47
2022/11/18 08:11:27;;;;;;;21.23;10.63;;;;;;;-3.08;100.00;98309.88;5151423;27;20046;-46
2022/11/18 08:13:53;;;;;;;21.55;10.48;;;;;;;-2.92;100.00;98292.41;5152084;27;20103;-47
2022/11/18 08:16:22;;;;;;;19.98;10.25;;;;;;;-2.88;100.00;98282.66;5152045;27;20433;-50
2022/11/18 08:18:49;;;;;;;19.65;10.85;;;;;;;-2.98;100.00;98256.03;5152056;27;20051;-51
2022/11/18 08:21:17;;;;;;;19.27;11.35;;;;;;;-3.05;100.00;98220.78;5152023;27;20170;-49
2022/11/18 08:23:48;;;;;;;18.73;11.00;;;;;;;-3.16;100.00;98203.31;5151737;27;20051;-51
2022/11/18 08:26:15;;;;;;;20.52;11.27;;;;;;;-3.10;100.00;98205.59;5152003;27;20061;-48
2022/11/18 08:28:42;;;;;;;21.30;10.35;;;;;;;-3.14;100.00;98204.59;5151882;27;20135;-47
2022/11/18 08:31:09;;;;;;;19.67;11.10;;;;;;;-2.98;100.00;98221.19;5151844;27;20140;-46
2022/11/18 08:33:36;;;;;;;28.63;10.32;;;;;;;-3.38;100.00;98182.56;5151548;27;20475;-48
2022/11/18 08:36:06;;;;;;;20.42;10.80;;;;;;;-3.10;100.00;98245.81;5151535;27;20068;-48
2022/11/18 08:38:32;;;;;;;20.45;11.10;;;;;;;-2.71;100.00;98268.66;5151693;27;20050;-51
2022/11/18 08:40:59;;;;;;;18.92;10.52;;;;;;;-2.68;100.00;98210.91;5151806;27;20153;-48
2022/11/18 08:43:25;;;;;;;19.63;10.10;;;;;;;-2.87;100.00;98166.22;5151531;27;20050;-48
2022/11/18 08:45:51;;;;;;;24.05;10.55;;;;;;;-2.98;100.00;98166.75;5151573;27;20592;-48
2022/11/18 08:48:17;;;;;;;14.30;8.65;;;;;;;-3.31;100.00;98181.06;5151438;27;20069;-48
2022/11/18 08:50:44;;;;;;;16.08;9.80;;;;;;;-3.12;100.00;98197.06;5151351;27;20511;-47
2022/11/18 08:53:11;;;;;;;19.77;9.57;;;;;;;-3.07;100.00;98145.22;5151352;27;20050;-49
2022/11/18 08:55:37;;;;;;;18.25;9.23;;;;;;;-2.96;100.00;98151.97;5151490;27;20523;-47
2022/11/18 08:58:03;;;;;;;15.52;8.77;;;;;;;-3.09;100.00;98101.84;5151440;27;20055;-47
2022/11/18 09:00:30;;;;;;;20.77;9.85;;;;;;;-2.92;100.00;98109.25;5151092;27;20133;-47
2022/11/18 09:02:56;;;;;;;22.13;10.82;;;;;;;-2.91;100.00;98090.16;5151259;27;20183;-50
2022/11/18 09:05:22;;;;;;;13.70;9.13;;;;;;;-3.27;100.00;98078.63;5151473;27;20049;-47
2022/11/18 09:07:49;;;;;;;22.85;10.65;;;;;;;-3.42;100.00;98075.19;5151148;27;20133;-47
2022/11/18 09:10:16;;;;;;;18.23;9.82;;;;;;;-3.23;100.00;98079.59;5151548;27;20489;-47
2022/11/18 09:12:42;;;;;;;22.10;9.90;;;;;;;-3.13;100.00;98066.00;5151213;27;20051;-47
2022/11/18 09:15:09;;;;;;;20.23;9.90;;;;;;;-2.84;100.00;98052.19;5151175;27;20055;-51
2022/11/18 09:17:36;;;;;;;19.00;9.52;;;;;;;-2.90;100.00;98011.31;5151353;27;20413;-49
2022/11/18 09:20:02;;;;;;;13.98;8.20;;;;;;;-2.65;100.00;97955.44;5151213;27;20051;-49
2022/11/18 09:22:28;;;;;;;20.90;9.60;;;;;;;-2.74;100.00;97914.34;5154020;27;20489;-51
2022/11/18 09:24:55;;;;;;;14.52;8.13;;;;;;;-3.24;100.00;97871.63;5154591;27;20047;-46
2022/11/18 09:27:22;;;;;;;20.20;9.77;;;;;;;-2.93;100.00;97907.31;5154553;27;20082;-49
2022/11/18 09:29:48;;;;;;;21.40;10.25;;;;;;;-2.95;100.00;97896.09;5154642;27;20051;-49
2022/11/18 09:32:14;;;;;;;17.08;9.77;;;;;;;-2.87;100.00;97862.38;5155006;27;20391;-48
2022/11/18 09:34:40;;;;;;;16.63;9.73;;;;;;;-3.12;100.00;97861.16;5154480;27;20127;-48
2022/11/18 09:37:07;;;;;;;18.48;10.07;;;;;;;-2.77;100.00;97882.78;5154375;27;20050;-48
2022/11/18 09:39:35;;;;;;;19.27;9.98;;;;;;;-2.55;100.00;97845.16;5154508;27;20046;-48
2022/11/18 09:42:18;;;;;;;20.50;9.60;;;;;;;-2.39;100.00;97767.69;5154268;27;20101;-47
2022/11/18 09:44:58;;;;;;;14.05;8.40;;;;;;;-2.51;100.00;97765.59;5154447;27;20046;-51
2022/11/18 09:47:28;;;;;;;18.05;9.27;;;;;;;-2.76;100.00;97683.22;5154400;27;20046;-47
2022/11/18 09:49:57;;;;;;;12.73;8.10;;;;;;;-2.88;100.00;97660.44;5154405;27;20098;-49
2022/11/18 09:52:27;;;;;;;9.70;6.45;;;;;;;-3.22;100.00;97638.94;5154270;27;20521;-47
2022/11/18 09:54:54;;;;;;;10.77;6.30;;;;;;;-2.91;100.00;97646.88;5154273;27;20050;-47
2022/11/18 09:57:24;;;;;;;10.10;6.53;;;;;;;-2.96;100.00;97606.81;5154150;27;20051;-51
2022/11/18 09:59:52;;;;;;;11.73;7.40;;;;;;;-2.65;100.00;97620.88;5154034;27;20051;-49
2022/11/18 10:02:33;;;;;;;10.15;5.78;;;;;;;-3.05;100.00;97565.81;5154258;27;20050;-50
2022/11/18 10:05:07;;;;;;;9.45;5.68;;;;;;;-3.16;100.00;97565.34;5154065;27;20130;-52
2022/11/18 10:07:41;;;;;;;10.32;6.68;;;;;;;-2.80;100.00;97567.69;5154006;27;20512;-50
2022/11/18 10:10:14;;;;;;;13.32;6.45;;;;;;;-2.91;100.00;97555.72;5154193;27;20439;-48
2022/11/18 10:12:49;;;;;;;10.03;5.80;;;;;;;-2.62;100.00;97549.69;5154118;27;20043;-47
2022/11/18 10:15:24;;;;;;;8.82;6.15;;;;;;;-2.75;100.00;97518.47;5153919;27;20050;-49
2022/11/18 10:17:58;;;;;;;7.90;4.88;;;;;;;-2.90;100.00;97503.66;5153996;27;20051;-49
2022/11/18 10:20:37;;;;;;;8.38;5.47;;;;;;;-2.86;100.00;97504.63;5153899;27;20047;-49
2022/11/18 10:23:14;;;;;;;8.40;4.68;;;;;;;-2.73;100.00;97500.16;5153843;27;20196;-50
2022/11/18 10:25:41;;;;;;;7.95;4.18;;;;;;;-2.78;100.00;97493.06;5153704;27;20619;-49
2022/11/18 10:28:21;;;;;;;6.15;4.65;;;;;;;-2.85;100.00;97490.88;5153810;27;20050;-51
2022/11/18 10:30:47;;;;;;;11.15;5.47;;;;;;;-2.82;100.00;97497.50;5154222;27;20173;-50
2022/11/18 10:33:27;;;;;;;10.40;5.43;;;;;;;-2.80;100.00;97511.38;5152838;27;20051;-51
2022/11/18 10:36:24;;;;;;;9.30;5.13;;;;;;;-3.14;100.00;97512.19;5153768;27;20137;-48
2022/11/18 10:39:06;;;;;;;9.80;5.50;;;;;;;-2.99;100.00;97535.84;5153730;27;20046;-52
2022/11/18 10:41:39;;;;;;;10.88;5.75;;;;;;;-3.03;100.00;97548.31;5153460;27;20055;-51
2022/11/18 10:44:06;;;;;;;9.13;6.03;;;;;;;-3.24;100.00;97576.81;5153664;27;20047;-50
2022/11/18 10:46:33;;;;;;;12.82;6.30;;;;;;;-3.00;100.00;97609.34;5153419;27;20057;-49
2022/11/18 10:49:16;;;;;;;11.35;5.78;;;;;;;-3.38;100.00;97647.41;5153350;27;20548;-48
2022/11/18 10:51:45;;;;;;;10.18;6.15;;;;;;;-3.48;100.00;97674.47;5151180;27;20051;-49
2022/11/18 10:54:15;;;;;;;11.52;6.57;;;;;;;-3.21;100.00;97729.75;5153218;27;20060;-48
2022/11/18 10:56:47;;;;;;;12.70;7.03;;;;;;;-3.19;100.00;97745.53;5153413;27;20057;-47
2022/11/18 10:59:25;;;;;;;13.82;6.03;;;;;;;-3.29;100.00;97733.19;5153221;27;20137;-51
2022/11/18 11:02:09;;;;;;;11.93;6.80;;;;;;;-3.51;100.00;97781.47;5153222;27;20416;-49
2022/11/18 11:04:36;;;;;;;14.18;6.53;;;;;;;-3.32;100.00;97806.19;5153018;27;20070;-48
2022/11/18 11:07:15;;;;;;;12.63;6.60;;;;;;;-3.21;100.00;97795.97;5153142;27;20051;-47
2022/11/18 11:09:41;;;;;;;9.57;6.20;;;;;;;-3.43;100.00;97796.78;5153268;27;20183;-47
2022/11/18 11:12:13;;;;;;;16.08;7.03;;;;;;;-2.96;100.00;97842.78;5152924;27;20137;-46
2022/11/18 11:14:49;;;;;;;18.05;7.40;;;;;;;-3.03;100.00;97799.53;5152801;27;20103;-46
2022/11/18 11:17:21;;;;;;;11.43;7.03;;;;;;;-3.21;100.00;97791.41;5152932;27;20054;-47
2022/11/18 11:19:52;;;;;;;12.30;5.95;;;;;;;-3.20;100.00;97776.09;5153068;27;20310;-47
2022/11/18 11:22:19;;;;;;;5.88;3.47;;;;;;;-3.32;100.00;97769.44;5152767;27;20493;-47
2022/11/18 11:24:46;;;;;;;6.90;4.93;;;;;;;-3.75;100.00;97752.34;5152620;27;20043;-50
2022/11/18 11:27:22;;;;;;;7.18;4.45;;;;;;;-3.56;100.00;97748.34;5152665;27;20506;-47
2022/11/18 11:30:04;;;;;;;6.95;4.10;;;;;;;-3.29;100.00;97717.13;5152876;27;20056;-46
2022/11/18 11:32:42;;;;;;;9.90;4.80;;;;;;;-3.35;100.00;97670.13;5152899;27;20099;-50
2022/11/18 11:35:15;;;;;;;7.80;4.93;;;;;;;-3.44;100.00;97642.50;5152475;27;20054;-48
2022/11/18 11:37:51;;;;;;;7.57;4.28;;;;;;;-3.74;100.00;97607.41;5152725;27;20438;-46
2022/11/18 11:40:28;;;;;;;5.43;3.20;;;;;;;-3.89;100.00;97600.59;5152821;27;20050;-50